sensor_id;sensor_type;location;lat;lon;timestamp;P1;durP1;ratioP1;P2;durP2;ratioP2
51286;SDS011;37364;46.974;18.916;2022-12-11T00:01:50;45.28;;;28.50;;
51286;SDS011;37364;46.974;18.916;2022-12-11T00:04:20;42.60;;;26.75;;
51286;SDS011;37364;46.974;18.916;2022-12-11T00:06:53;41.08;;;26.02;;
51286;SDS011;37364;46.974;18.916;2022-12-11T00:09:24;39.05;;;26.92;;
51286;SDS011;37364;46.974;18.916;2022-12-11T00:11:54;43.50;;;27.08;;
51286;SDS011;37364;46.974;18.916;2022-12-11T00:14:25;40.92;;;25.23;;
51286;SDS011;37364;46.974;18.916;2022-12-11T00:16:55;39.20;;;21.38;;
51286;SDS011;37364;46.974;18.916;2022-12-11T00:19:26;42.53;;;26.40;;
51286;SDS011;37364;46.974;18.916;2022-12-11T00:22:00;45.08;;;27.33;;
51286;SDS011;37364;46.974;18.916;2022-12-11T00:24:30;37.78;;;24.70;;
51286;SDS011;37364;46.974;18.916;2022-12-11T00:27:00;37.22;;;26.02;;
51286;SDS011;37364;46.974;18.916;2022-12-11T00:29:30;38.60;;;23.92;;
51286;SDS011;37364;46.974;18.916;2022-12-11T00:32:02;39.17;;;23.23;;
51286;SDS011;37364;46.974;18.916;2022-12-11T00:34:32;39.00;;;23.40;;
51286;SDS011;37364;46.974;18.916;2022-12-11T00:37:05;41.42;;;25.73;;
51286;SDS011;37364;46.974;18.916;2022-12-11T00:39:35;35.70;;;22.98;;
51286;SDS011;37364;46.974;18.916;2022-12-11T00:42:07;36.22;;;24.45;;
51286;SDS011;37364;46.974;18.916;2022-12-11T00:44:37;40.85;;;25.00;;
51286;SDS011;37364;46.974;18.916;2022-12-11T00:47:07;32.05;;;21.92;;
51286;SDS011;37364;46.974;18.916;2022-12-11T00:49:38;31.33;;;20.77;;
51286;SDS011;37364;46.974;18.916;2022-12-11T00:52:18;32.80;;;22.27;;
51286;SDS011;37364;46.974;18.916;2022-12-11T00:54:48;36.33;;;23.27;;
51286;SDS011;37364;46.974;18.916;2022-12-11T00:57:18;39.13;;;24.25;;
51286;SDS011;37364;46.974;18.916;2022-12-11T00:59:48;36.90;;;22.88;;
51286;SDS011;37364;46.974;18.916;2022-12-11T01:02:18;33.05;;;23.63;;
51286;SDS011;37364;46.974;18.916;2022-12-11T01:04:49;31.67;;;22.00;;
51286;SDS011;37364;46.974;18.916;2022-12-11T01:07:22;37.47;;;24.55;;
51286;SDS011;37364;46.974;18.916;2022-12-11T01:09:53;31.67;;;22.48;;
51286;SDS011;37364;46.974;18.916;2022-12-11T01:12:35;33.35;;;23.90;;
51286;SDS011;37364;46.974;18.916;2022-12-11T01:15:06;35.00;;;24.42;;
51286;SDS011;37364;46.974;18.916;2022-12-11T01:17:38;43.10;;;23.83;;
51286;SDS011;37364;46.974;18.916;2022-12-11T01:20:09;37.28;;;24.00;;
51286;SDS011;37364;46.974;18.916;2022-12-11T01:22:42;26.83;;;20.40;;
51286;SDS011;37364;46.974;18.916;2022-12-11T01:25:13;35.15;;;21.08;;
51286;SDS011;37364;46.974;18.916;2022-12-11T01:27:43;32.42;;;23.13;;
51286;SDS011;37364;46.974;18.916;2022-12-11T01:30:14;31.00;;;22.00;;
51286;SDS011;37364;46.974;18.916;2022-12-11T01:32:44;33.08;;;22.08;;
51286;SDS011;37364;46.974;18.916;2022-12-11T01:35:15;31.80;;;22.25;;
51286;SDS011;37364;46.974;18.916;2022-12-11T01:37:49;37.05;;;22.13;;
51286;SDS011;37364;46.974;18.916;2022-12-11T01:40:20;23.58;;;17.33;;
51286;SDS011;37364;46.974;18.916;2022-12-11T01:42:51;28.85;;;20.13;;
51286;SDS011;37364;46.974;18.916;2022-12-11T01:45:24;25.33;;;19.02;;
51286;SDS011;37364;46.974;18.916;2022-12-11T01:48:03;27.70;;;20.77;;
51286;SDS011;37364;46.974;18.916;2022-12-11T01:50:38;28.83;;;20.00;;
51286;SDS011;37364;46.974;18.916;2022-12-11T01:53:17;31.70;;;19.05;;
51286;SDS011;37364;46.974;18.916;2022-12-11T01:55:50;26.17;;;19.02;;
51286;SDS011;37364;46.974;18.916;2022-12-11T01:58:25;26.67;;;18.25;;
51286;SDS011;37364;46.974;18.916;2022-12-11T02:00:59;27.48;;;18.13;;
51286;SDS011;37364;46.974;18.916;2022-12-11T02:03:32;22.65;;;15.90;;
51286;SDS011;37364;46.974;18.916;2022-12-11T02:06:03;24.48;;;16.92;;
51286;SDS011;37364;46.974;18.916;2022-12-11T02:08:36;25.45;;;16.95;;
51286;SDS011;37364;46.974;18.916;2022-12-11T02:11:09;21.08;;;17.50;;
51286;SDS011;37364;46.974;18.916;2022-12-11T02:13:43;22.52;;;15.90;;
51286;SDS011;37364;46.974;18.916;2022-12-11T02:16:22;25.13;;;16.67;;
51286;SDS011;37364;46.974;18.916;2022-12-11T02:18:59;21.40;;;15.50;;
51286;SDS011;37364;46.974;18.916;2022-12-11T02:21:37;30.23;;;18.85;;
51286;SDS011;37364;46.974;18.916;2022-12-11T02:24:25;26.17;;;17.63;;
51286;SDS011;37364;46.974;18.916;2022-12-11T02:27:13;25.60;;;19.02;;
51286;SDS011;37364;46.974;18.916;2022-12-11T02:32:30;26.30;;;20.13;;
51286;SDS011;37364;46.974;18.916;2022-12-11T02:35:08;28.35;;;18.67;;
51286;SDS011;37364;46.974;18.916;2022-12-11T02:37:42;30.40;;;19.92;;
51286;SDS011;37364;46.974;18.916;2022-12-11T02:40:16;31.58;;;20.75;;
51286;SDS011;37364;46.974;18.916;2022-12-11T02:42:51;40.42;;;23.15;;
51286;SDS011;37364;46.974;18.916;2022-12-11T02:45:27;32.45;;;22.30;;
51286;SDS011;37364;46.974;18.916;2022-12-11T02:48:00;32.72;;;22.08;;
51286;SDS011;37364;46.974;18.916;2022-12-11T02:50:34;31.10;;;23.10;;
51286;SDS011;37364;46.974;18.916;2022-12-11T02:53:07;40.85;;;24.33;;
51286;SDS011;37364;46.974;18.916;2022-12-11T02:55:41;32.30;;;24.52;;
51286;SDS011;37364;46.974;18.916;2022-12-11T02:58:13;36.97;;;24.38;;
51286;SDS011;37364;46.974;18.916;2022-12-11T03:00:49;45.03;;;27.77;;
51286;SDS011;37364;46.974;18.916;2022-12-11T03:03:21;39.17;;;26.33;;
51286;SDS011;37364;46.974;18.916;2022-12-11T03:05:52;37.70;;;25.75;;
51286;SDS011;37364;46.974;18.916;2022-12-11T03:08:22;46.78;;;27.00;;
51286;SDS011;37364;46.974;18.916;2022-12-11T03:10:53;37.03;;;25.65;;
51286;SDS011;37364;46.974;18.916;2022-12-11T03:13:23;40.55;;;24.02;;
51286;SDS011;37364;46.974;18.916;2022-12-11T03:16:00;39.22;;;25.73;;
51286;SDS011;37364;46.974;18.916;2022-12-11T03:18:41;38.08;;;26.50;;
51286;SDS011;37364;46.974;18.916;2022-12-11T03:21:18;45.75;;;28.67;;
51286;SDS011;37364;46.974;18.916;2022-12-11T03:23:56;46.22;;;28.90;;
51286;SDS011;37364;46.974;18.916;2022-12-11T03:26:33;38.72;;;26.15;;
51286;SDS011;37364;46.974;18.916;2022-12-11T03:29:11;42.17;;;26.02;;
51286;SDS011;37364;46.974;18.916;2022-12-11T03:31:49;41.28;;;25.40;;
51286;SDS011;37364;46.974;18.916;2022-12-11T03:34:24;41.00;;;27.52;;
51286;SDS011;37364;46.974;18.916;2022-12-11T03:36:58;43.17;;;26.70;;
51286;SDS011;37364;46.974;18.916;2022-12-11T03:39:30;43.47;;;25.95;;
51286;SDS011;37364;46.974;18.916;2022-12-11T03:42:03;48.58;;;28.75;;
51286;SDS011;37364;46.974;18.916;2022-12-11T03:44:36;48.38;;;28.60;;
51286;SDS011;37364;46.974;18.916;2022-12-11T03:47:10;41.15;;;26.10;;
51286;SDS011;37364;46.974;18.916;2022-12-11T03:49:44;36.03;;;24.52;;
51286;SDS011;37364;46.974;18.916;2022-12-11T03:52:16;43.70;;;28.10;;
51286;SDS011;37364;46.974;18.916;2022-12-11T03:54:48;34.83;;;21.88;;
51286;SDS011;37364;46.974;18.916;2022-12-11T03:57:20;33.17;;;23.83;;
51286;SDS011;37364;46.974;18.916;2022-12-11T03:59:54;42.80;;;26.98;;
51286;SDS011;37364;46.974;18.916;2022-12-11T04:02:30;54.95;;;33.03;;
51286;SDS011;37364;46.974;18.916;2022-12-11T04:05:00;31.73;;;22.90;;
51286;SDS011;37364;46.974;18.916;2022-12-11T04:07:31;36.20;;;24.77;;
51286;SDS011;37364;46.974;18.916;2022-12-11T04:10:01;35.70;;;22.63;;
51286;SDS011;37364;46.974;18.916;2022-12-11T04:12:33;37.80;;;24.27;;
51286;SDS011;37364;46.974;18.916;2022-12-11T04:15:03;41.22;;;24.98;;
51286;SDS011;37364;46.974;18.916;2022-12-11T04:17:41;42.15;;;25.23;;
51286;SDS011;37364;46.974;18.916;2022-12-11T04:20:24;46.63;;;31.50;;
51286;SDS011;37364;46.974;18.916;2022-12-11T04:23:10;34.58;;;21.63;;
51286;SDS011;37364;46.974;18.916;2022-12-11T04:25:54;57.70;;;30.83;;
51286;SDS011;37364;46.974;18.916;2022-12-11T04:28:33;54.90;;;31.23;;
51286;SDS011;37364;46.974;18.916;2022-12-11T04:31:04;41.08;;;27.98;;
51286;SDS011;37364;46.974;18.916;2022-12-11T04:33:39;42.92;;;24.50;;
51286;SDS011;37364;46.974;18.916;2022-12-11T04:36:10;46.22;;;31.58;;
51286;SDS011;37364;46.974;18.916;2022-12-11T04:38:41;39.75;;;24.60;;
51286;SDS011;37364;46.974;18.916;2022-12-11T04:41:12;31.90;;;20.88;;
51286;SDS011;37364;46.974;18.916;2022-12-11T04:43:43;29.67;;;19.88;;
51286;SDS011;37364;46.974;18.916;2022-12-11T04:46:15;30.20;;;20.55;;
51286;SDS011;37364;46.974;18.916;2022-12-11T04:48:49;29.42;;;19.80;;
51286;SDS011;37364;46.974;18.916;2022-12-11T04:51:23;85.18;;;36.25;;
51286;SDS011;37364;46.974;18.916;2022-12-11T04:54:01;46.17;;;21.63;;
51286;SDS011;37364;46.974;18.916;2022-12-11T04:56:31;35.00;;;18.83;;
51286;SDS011;37364;46.974;18.916;2022-12-11T04:59:01;35.65;;;20.55;;
51286;SDS011;37364;46.974;18.916;2022-12-11T05:01:31;34.92;;;20.20;;
51286;SDS011;37364;46.974;18.916;2022-12-11T05:04:04;49.28;;;27.27;;
51286;SDS011;37364;46.974;18.916;2022-12-11T05:06:35;33.50;;;21.23;;
51286;SDS011;37364;46.974;18.916;2022-12-11T05:09:05;23.08;;;16.83;;
51286;SDS011;37364;46.974;18.916;2022-12-11T05:11:35;28.15;;;18.38;;
51286;SDS011;37364;46.974;18.916;2022-12-11T05:14:05;29.88;;;17.75;;
51286;SDS011;37364;46.974;18.916;2022-12-11T05:16:35;20.58;;;15.05;;
51286;SDS011;37364;46.974;18.916;2022-12-11T05:19:08;26.08;;;15.75;;
51286;SDS011;37364;46.974;18.916;2022-12-11T05:21:38;18.48;;;13.75;;
51286;SDS011;37364;46.974;18.916;2022-12-11T05:24:09;20.95;;;13.88;;
51286;SDS011;37364;46.974;18.916;2022-12-11T05:26:39;23.00;;;14.00;;
51286;SDS011;37364;46.974;18.916;2022-12-11T05:29:10;34.42;;;19.67;;
51286;SDS011;37364;46.974;18.916;2022-12-11T05:31:40;25.25;;;16.73;;
51286;SDS011;37364;46.974;18.916;2022-12-11T05:34:13;23.25;;;15.50;;
51286;SDS011;37364;46.974;18.916;2022-12-11T05:36:43;22.70;;;15.80;;
51286;SDS011;37364;46.974;18.916;2022-12-11T05:39:13;24.73;;;16.77;;
51286;SDS011;37364;46.974;18.916;2022-12-11T05:41:44;22.90;;;15.57;;
51286;SDS011;37364;46.974;18.916;2022-12-11T05:44:14;22.45;;;17.70;;
51286;SDS011;37364;46.974;18.916;2022-12-11T05:46:44;22.98;;;16.42;;
51286;SDS011;37364;46.974;18.916;2022-12-11T05:49:17;21.02;;;14.63;;
51286;SDS011;37364;46.974;18.916;2022-12-11T05:51:56;19.13;;;14.32;;
51286;SDS011;37364;46.974;18.916;2022-12-11T05:54:26;23.52;;;16.02;;
51286;SDS011;37364;46.974;18.916;2022-12-11T05:56:56;20.50;;;14.40;;
51286;SDS011;37364;46.974;18.916;2022-12-11T05:59:27;26.85;;;17.42;;
51286;SDS011;37364;46.974;18.916;2022-12-11T06:01:57;23.35;;;15.85;;
51286;SDS011;37364;46.974;18.916;2022-12-11T06:04:30;22.13;;;16.10;;
51286;SDS011;37364;46.974;18.916;2022-12-11T06:07:00;28.55;;;17.83;;
51286;SDS011;37364;46.974;18.916;2022-12-11T06:09:30;25.27;;;16.80;;
51286;SDS011;37364;46.974;18.916;2022-12-11T06:12:00;35.03;;;18.13;;
51286;SDS011;37364;46.974;18.916;2022-12-11T06:14:30;30.52;;;17.98;;
51286;SDS011;37364;46.974;18.916;2022-12-11T06:17:00;25.30;;;16.65;;
51286;SDS011;37364;46.974;18.916;2022-12-11T06:19:34;28.77;;;17.45;;
51286;SDS011;37364;46.974;18.916;2022-12-11T06:22:05;34.50;;;20.40;;
51286;SDS011;37364;46.974;18.916;2022-12-11T06:24:35;28.98;;;18.80;;
51286;SDS011;37364;46.974;18.916;2022-12-11T06:27:05;28.80;;;17.63;;
51286;SDS011;37364;46.974;18.916;2022-12-11T06:29:36;35.25;;;16.83;;
51286;SDS011;37364;46.974;18.916;2022-12-11T06:32:06;30.52;;;15.90;;
51286;SDS011;37364;46.974;18.916;2022-12-11T06:34:39;28.92;;;16.70;;
51286;SDS011;37364;46.974;18.916;2022-12-11T06:37:09;21.10;;;14.47;;
51286;SDS011;37364;46.974;18.916;2022-12-11T06:39:39;26.70;;;15.60;;
51286;SDS011;37364;46.974;18.916;2022-12-11T06:42:10;21.48;;;14.82;;
51286;SDS011;37364;46.974;18.916;2022-12-11T06:44:40;19.42;;;11.20;;
51286;SDS011;37364;46.974;18.916;2022-12-11T06:47:10;20.30;;;13.40;;
51286;SDS011;37364;46.974;18.916;2022-12-11T06:49:43;25.23;;;15.90;;
51286;SDS011;37364;46.974;18.916;2022-12-11T06:52:14;23.40;;;15.15;;
51286;SDS011;37364;46.974;18.916;2022-12-11T06:54:44;24.98;;;13.07;;
51286;SDS011;37364;46.974;18.916;2022-12-11T06:57:14;25.38;;;16.55;;
51286;SDS011;37364;46.974;18.916;2022-12-11T06:59:45;27.30;;;14.23;;
51286;SDS011;37364;46.974;18.916;2022-12-11T07:02:16;25.27;;;16.00;;
51286;SDS011;37364;46.974;18.916;2022-12-11T07:04:50;20.35;;;14.95;;
51286;SDS011;37364;46.974;18.916;2022-12-11T07:07:21;19.55;;;13.55;;
51286;SDS011;37364;46.974;18.916;2022-12-11T07:09:51;50.03;;;28.42;;
51286;SDS011;37364;46.974;18.916;2022-12-11T07:12:21;82.55;;;47.80;;
51286;SDS011;37364;46.974;18.916;2022-12-11T07:14:51;21.80;;;15.95;;
51286;SDS011;37364;46.974;18.916;2022-12-11T07:17:22;18.80;;;12.52;;
51286;SDS011;37364;46.974;18.916;2022-12-11T07:19:55;23.35;;;15.32;;
51286;SDS011;37364;46.974;18.916;2022-12-11T07:22:25;30.48;;;20.60;;
51286;SDS011;37364;46.974;18.916;2022-12-11T07:24:57;27.25;;;20.25;;
51286;SDS011;37364;46.974;18.916;2022-12-11T07:27:28;55.92;;;34.45;;
51286;SDS011;37364;46.974;18.916;2022-12-11T07:29:58;32.53;;;21.58;;
51286;SDS011;37364;46.974;18.916;2022-12-11T07:32:28;26.88;;;17.25;;
51286;SDS011;37364;46.974;18.916;2022-12-11T07:35:01;24.08;;;15.40;;
51286;SDS011;37364;46.974;18.916;2022-12-11T07:37:32;31.20;;;15.85;;
51286;SDS011;37364;46.974;18.916;2022-12-11T07:40:04;16.63;;;12.38;;
51286;SDS011;37364;46.974;18.916;2022-12-11T07:42:36;20.60;;;14.13;;
51286;SDS011;37364;46.974;18.916;2022-12-11T07:45:12;13.98;;;11.23;;
51286;SDS011;37364;46.974;18.916;2022-12-11T07:47:59;20.52;;;12.65;;
51286;SDS011;37364;46.974;18.916;2022-12-11T07:50:34;16.83;;;12.02;;
51286;SDS011;37364;46.974;18.916;2022-12-11T07:53:08;15.73;;;10.80;;
51286;SDS011;37364;46.974;18.916;2022-12-11T07:55:39;35.55;;;15.18;;
51286;SDS011;37364;46.974;18.916;2022-12-11T07:58:11;15.77;;;11.43;;
51286;SDS011;37364;46.974;18.916;2022-12-11T08:00:46;16.63;;;12.75;;
51286;SDS011;37364;46.974;18.916;2022-12-11T08:03:18;23.35;;;15.70;;
51286;SDS011;37364;46.974;18.916;2022-12-11T08:05:51;14.88;;;10.70;;
51286;SDS011;37364;46.974;18.916;2022-12-11T08:08:24;19.40;;;13.55;;
51286;SDS011;37364;46.974;18.916;2022-12-11T08:10:59;12.98;;;9.63;;
51286;SDS011;37364;46.974;18.916;2022-12-11T08:13:30;14.82;;;10.18;;
51286;SDS011;37364;46.974;18.916;2022-12-11T08:16:02;19.35;;;12.95;;
51286;SDS011;37364;46.974;18.916;2022-12-11T08:18:33;14.20;;;9.55;;
51286;SDS011;37364;46.974;18.916;2022-12-11T08:21:07;12.90;;;9.13;;
51286;SDS011;37364;46.974;18.916;2022-12-11T08:23:39;14.18;;;9.82;;
51286;SDS011;37364;46.974;18.916;2022-12-11T08:26:11;14.70;;;9.70;;
51286;SDS011;37364;46.974;18.916;2022-12-11T08:28:44;14.10;;;8.95;;
51286;SDS011;37364;46.974;18.916;2022-12-11T08:31:15;15.77;;;11.07;;
51286;SDS011;37364;46.974;18.916;2022-12-11T08:33:46;13.60;;;9.48;;
51286;SDS011;37364;46.974;18.916;2022-12-11T08:36:20;17.23;;;9.60;;
51286;SDS011;37364;46.974;18.916;2022-12-11T08:38:52;14.43;;;8.73;;
51286;SDS011;37364;46.974;18.916;2022-12-11T08:41:24;21.15;;;11.50;;
51286;SDS011;37364;46.974;18.916;2022-12-11T08:43:56;18.52;;;11.20;;
51286;SDS011;37364;46.974;18.916;2022-12-11T08:46:27;41.92;;;23.95;;
51286;SDS011;37364;46.974;18.916;2022-12-11T08:49:02;49.60;;;23.77;;
51286;SDS011;37364;46.974;18.916;2022-12-11T08:51:36;33.08;;;15.38;;
51286;SDS011;37364;46.974;18.916;2022-12-11T08:54:07;29.27;;;15.48;;
51286;SDS011;37364;46.974;18.916;2022-12-11T08:56:38;90.53;;;40.70;;
51286;SDS011;37364;46.974;18.916;2022-12-11T08:59:08;19.58;;;12.00;;
51286;SDS011;37364;46.974;18.916;2022-12-11T09:01:38;15.55;;;9.95;;
51286;SDS011;37364;46.974;18.916;2022-12-11T09:04:08;18.08;;;10.07;;
51286;SDS011;37364;46.974;18.916;2022-12-11T09:06:41;17.83;;;9.95;;
51286;SDS011;37364;46.974;18.916;2022-12-11T09:09:11;11.65;;;8.18;;
51286;SDS011;37364;46.974;18.916;2022-12-11T09:11:41;10.13;;;7.55;;
51286;SDS011;37364;46.974;18.916;2022-12-11T09:14:12;16.08;;;10.30;;
51286;SDS011;37364;46.974;18.916;2022-12-11T09:16:42;11.63;;;7.78;;
51286;SDS011;37364;46.974;18.916;2022-12-11T09:19:12;21.00;;;8.23;;
51286;SDS011;37364;46.974;18.916;2022-12-11T09:21:47;14.40;;;8.80;;
51286;SDS011;37364;46.974;18.916;2022-12-11T09:24:17;15.25;;;9.45;;
51286;SDS011;37364;46.974;18.916;2022-12-11T09:26:47;14.10;;;8.90;;
51286;SDS011;37364;46.974;18.916;2022-12-11T09:29:17;14.80;;;8.82;;
51286;SDS011;37364;46.974;18.916;2022-12-11T09:31:48;13.80;;;9.50;;
51286;SDS011;37364;46.974;18.916;2022-12-11T09:34:18;15.82;;;9.40;;
51286;SDS011;37364;46.974;18.916;2022-12-11T09:36:57;11.40;;;7.13;;
51286;SDS011;37364;46.974;18.916;2022-12-11T09:39:27;14.03;;;9.43;;
51286;SDS011;37364;46.974;18.916;2022-12-11T09:42:00;13.18;;;7.55;;
51286;SDS011;37364;46.974;18.916;2022-12-11T09:44:38;15.70;;;9.32;;
51286;SDS011;37364;46.974;18.916;2022-12-11T09:47:15;10.55;;;7.63;;
51286;SDS011;37364;46.974;18.916;2022-12-11T09:49:50;11.40;;;7.88;;
51286;SDS011;37364;46.974;18.916;2022-12-11T09:52:31;11.55;;;8.70;;
51286;SDS011;37364;46.974;18.916;2022-12-11T09:55:08;21.98;;;12.00;;
51286;SDS011;37364;46.974;18.916;2022-12-11T09:57:45;21.20;;;14.43;;
51286;SDS011;37364;46.974;18.916;2022-12-11T10:00:25;16.45;;;11.27;;
51286;SDS011;37364;46.974;18.916;2022-12-11T10:06:02;14.38;;;9.25;;
51286;SDS011;37364;46.974;18.916;2022-12-11T10:08:46;15.60;;;8.98;;
51286;SDS011;37364;46.974;18.916;2022-12-11T10:11:32;15.00;;;8.90;;
51286;SDS011;37364;46.974;18.916;2022-12-11T10:14:24;13.27;;;9.27;;
51286;SDS011;37364;46.974;18.916;2022-12-11T10:17:01;15.35;;;9.88;;
51286;SDS011;37364;46.974;18.916;2022-12-11T10:19:35;16.05;;;11.20;;
51286;SDS011;37364;46.974;18.916;2022-12-11T10:22:07;16.63;;;10.32;;
51286;SDS011;37364;46.974;18.916;2022-12-11T10:24:50;19.00;;;12.20;;
51286;SDS011;37364;46.974;18.916;2022-12-11T10:30:13;13.45;;;9.65;;
51286;SDS011;37364;46.974;18.916;2022-12-11T10:32:49;20.70;;;11.00;;
51286;SDS011;37364;46.974;18.916;2022-12-11T10:35:32;20.40;;;12.77;;
51286;SDS011;37364;46.974;18.916;2022-12-11T10:38:10;21.63;;;13.10;;
51286;SDS011;37364;46.974;18.916;2022-12-11T10:40:49;13.40;;;9.38;;
51286;SDS011;37364;46.974;18.916;2022-12-11T10:43:30;14.38;;;10.52;;
51286;SDS011;37364;46.974;18.916;2022-12-11T10:46:02;16.92;;;10.02;;
51286;SDS011;37364;46.974;18.916;2022-12-11T10:48:33;17.02;;;9.80;;
51286;SDS011;37364;46.974;18.916;2022-12-11T10:51:10;15.75;;;9.52;;
51286;SDS011;37364;46.974;18.916;2022-12-11T10:53:42;18.42;;;10.57;;
51286;SDS011;37364;46.974;18.916;2022-12-11T10:56:23;12.23;;;9.38;;
51286;SDS011;37364;46.974;18.916;2022-12-11T10:58:55;14.68;;;10.65;;
51286;SDS011;37364;46.974;18.916;2022-12-11T11:01:28;15.32;;;10.68;;
51286;SDS011;37364;46.974;18.916;2022-12-11T11:04:01;21.05;;;11.07;;
51286;SDS011;37364;46.974;18.916;2022-12-11T11:12:00;19.50;;;13.10;;
51286;SDS011;37364;46.974;18.916;2022-12-11T11:14:33;54.10;;;19.95;;
51286;SDS011;37364;46.974;18.916;2022-12-11T11:17:04;22.55;;;11.00;;
51286;SDS011;37364;46.974;18.916;2022-12-11T11:19:34;15.27;;;9.55;;
51286;SDS011;37364;46.974;18.916;2022-12-11T11:22:06;19.95;;;11.48;;
51286;SDS011;37364;46.974;18.916;2022-12-11T11:24:42;18.08;;;11.25;;
51286;SDS011;37364;46.974;18.916;2022-12-11T11:27:20;45.23;;;20.73;;
51286;SDS011;37364;46.974;18.916;2022-12-11T11:29:57;13.07;;;9.13;;
51286;SDS011;37364;46.974;18.916;2022-12-11T11:32:30;24.38;;;12.45;;
51286;SDS011;37364;46.974;18.916;2022-12-11T11:37:57;18.33;;;9.43;;
51286;SDS011;37364;46.974;18.916;2022-12-11T11:40:35;50.15;;;22.02;;
51286;SDS011;37364;46.974;18.916;2022-12-11T11:43:14;24.58;;;12.32;;
51286;SDS011;37364;46.974;18.916;2022-12-11T11:45:50;22.60;;;12.63;;
51286;SDS011;37364;46.974;18.916;2022-12-11T11:48:27;61.53;;;33.13;;
51286;SDS011;37364;46.974;18.916;2022-12-11T11:51:13;31.67;;;17.75;;
51286;SDS011;37364;46.974;18.916;2022-12-11T11:53:48;18.58;;;11.73;;
51286;SDS011;37364;46.974;18.916;2022-12-11T11:56:21;13.73;;;9.93;;
51286;SDS011;37364;46.974;18.916;2022-12-11T11:59:02;15.80;;;11.45;;
51286;SDS011;37364;46.974;18.916;2022-12-11T12:01:40;16.85;;;10.95;;
51286;SDS011;37364;46.974;18.916;2022-12-11T12:04:11;14.40;;;10.25;;
51286;SDS011;37364;46.974;18.916;2022-12-11T12:06:49;11.75;;;8.38;;
51286;SDS011;37364;46.974;18.916;2022-12-11T12:09:32;15.88;;;9.93;;
51286;SDS011;37364;46.974;18.916;2022-12-11T12:12:14;15.10;;;9.50;;
51286;SDS011;37364;46.974;18.916;2022-12-11T12:15:14;15.30;;;9.52;;
51286;SDS011;37364;46.974;18.916;2022-12-11T12:17:55;15.90;;;8.68;;
51286;SDS011;37364;46.974;18.916;2022-12-11T12:20:29;15.10;;;9.73;;
51286;SDS011;37364;46.974;18.916;2022-12-11T12:23:11;12.82;;;9.75;;
51286;SDS011;37364;46.974;18.916;2022-12-11T12:26:04;12.55;;;9.02;;
51286;SDS011;37364;46.974;18.916;2022-12-11T12:28:41;15.00;;;10.77;;
51286;SDS011;37364;46.974;18.916;2022-12-11T12:31:24;14.00;;;9.20;;
51286;SDS011;37364;46.974;18.916;2022-12-11T12:34:09;16.83;;;11.80;;
51286;SDS011;37364;46.974;18.916;2022-12-11T12:39:28;11.75;;;8.10;;
51286;SDS011;37364;46.974;18.916;2022-12-11T12:42:06;17.33;;;10.80;;
51286;SDS011;37364;46.974;18.916;2022-12-11T12:44:48;93.28;;;43.25;;
51286;SDS011;37364;46.974;18.916;2022-12-11T12:47:30;18.75;;;10.25;;
51286;SDS011;37364;46.974;18.916;2022-12-11T12:50:03;15.82;;;9.75;;
51286;SDS011;37364;46.974;18.916;2022-12-11T12:52:40;18.45;;;10.32;;
51286;SDS011;37364;46.974;18.916;2022-12-11T12:55:17;28.45;;;15.60;;
51286;SDS011;37364;46.974;18.916;2022-12-11T12:57:52;17.67;;;12.05;;
51286;SDS011;37364;46.974;18.916;2022-12-11T13:00:27;30.60;;;16.65;;
51286;SDS011;37364;46.974;18.916;2022-12-11T13:03:10;31.60;;;17.75;;
51286;SDS011;37364;46.974;18.916;2022-12-11T13:05:43;23.70;;;13.88;;
51286;SDS011;37364;46.974;18.916;2022-12-11T13:08:23;111.38;;;59.30;;
51286;SDS011;37364;46.974;18.916;2022-12-11T13:11:01;13.38;;;10.45;;
51286;SDS011;37364;46.974;18.916;2022-12-11T13:13:34;22.80;;;14.30;;
51286;SDS011;37364;46.974;18.916;2022-12-11T13:18:58;18.63;;;12.23;;
51286;SDS011;37364;46.974;18.916;2022-12-11T13:21:29;18.33;;;11.50;;
51286;SDS011;37364;46.974;18.916;2022-12-11T13:24:14;23.53;;;13.60;;
51286;SDS011;37364;46.974;18.916;2022-12-11T13:26:52;16.88;;;11.05;;
51286;SDS011;37364;46.974;18.916;2022-12-11T13:29:26;33.33;;;20.92;;
51286;SDS011;37364;46.974;18.916;2022-12-11T13:31:58;25.70;;;17.38;;
51286;SDS011;37364;46.974;18.916;2022-12-11T13:34:33;20.65;;;13.30;;
51286;SDS011;37364;46.974;18.916;2022-12-11T13:37:15;26.23;;;16.55;;
51286;SDS011;37364;46.974;18.916;2022-12-11T13:39:53;26.05;;;16.73;;
51286;SDS011;37364;46.974;18.916;2022-12-11T13:42:26;29.45;;;18.98;;
51286;SDS011;37364;46.974;18.916;2022-12-11T13:45:01;22.33;;;14.55;;
51286;SDS011;37364;46.974;18.916;2022-12-11T13:47:33;19.63;;;14.77;;
51286;SDS011;37364;46.974;18.916;2022-12-11T13:50:12;19.17;;;11.70;;
51286;SDS011;37364;46.974;18.916;2022-12-11T13:52:54;16.88;;;12.43;;
51286;SDS011;37364;46.974;18.916;2022-12-11T13:55:25;18.38;;;12.43;;
51286;SDS011;37364;46.974;18.916;2022-12-11T13:57:58;19.67;;;15.32;;
51286;SDS011;37364;46.974;18.916;2022-12-11T14:00:29;20.10;;;13.18;;
51286;SDS011;37364;46.974;18.916;2022-12-11T14:03:03;17.35;;;12.25;;
51286;SDS011;37364;46.974;18.916;2022-12-11T14:05:37;27.65;;;18.30;;
51286;SDS011;37364;46.974;18.916;2022-12-11T14:08:10;29.13;;;17.98;;
51286;SDS011;37364;46.974;18.916;2022-12-11T14:10:49;21.13;;;14.00;;
51286;SDS011;37364;46.974;18.916;2022-12-11T14:13:22;20.20;;;14.45;;
51286;SDS011;37364;46.974;18.916;2022-12-11T14:15:55;22.50;;;14.45;;
51286;SDS011;37364;46.974;18.916;2022-12-11T14:18:26;17.83;;;12.48;;
51286;SDS011;37364;46.974;18.916;2022-12-11T14:21:04;22.90;;;17.10;;
51286;SDS011;37364;46.974;18.916;2022-12-11T14:23:35;20.67;;;13.15;;
51286;SDS011;37364;46.974;18.916;2022-12-11T14:26:14;25.95;;;17.48;;
51286;SDS011;37364;46.974;18.916;2022-12-11T14:28:47;18.92;;;11.95;;
51286;SDS011;37364;46.974;18.916;2022-12-11T14:31:26;18.13;;;13.18;;
51286;SDS011;37364;46.974;18.916;2022-12-11T14:34:01;28.20;;;15.68;;
51286;SDS011;37364;46.974;18.916;2022-12-11T14:36:38;29.63;;;18.67;;
51286;SDS011;37364;46.974;18.916;2022-12-11T14:41:44;19.77;;;13.18;;
51286;SDS011;37364;46.974;18.916;2022-12-11T14:44:21;23.33;;;12.80;;
51286;SDS011;37364;46.974;18.916;2022-12-11T14:46:55;18.85;;;12.25;;
51286;SDS011;37364;46.974;18.916;2022-12-11T14:49:31;20.13;;;12.70;;
51286;SDS011;37364;46.974;18.916;2022-12-11T14:52:15;21.50;;;12.50;;
51286;SDS011;37364;46.974;18.916;2022-12-11T14:54:50;19.92;;;12.80;;
51286;SDS011;37364;46.974;18.916;2022-12-11T14:59:56;21.13;;;12.45;;
51286;SDS011;37364;46.974;18.916;2022-12-11T15:02:28;24.42;;;14.90;;
51286;SDS011;37364;46.974;18.916;2022-12-11T15:05:02;63.47;;;34.03;;
51286;SDS011;37364;46.974;18.916;2022-12-11T15:07:52;57.83;;;31.80;;
51286;SDS011;37364;46.974;18.916;2022-12-11T15:10:25;51.25;;;28.02;;
51286;SDS011;37364;46.974;18.916;2022-12-11T15:13:02;72.28;;;38.83;;
51286;SDS011;37364;46.974;18.916;2022-12-11T15:15:36;99.60;;;49.90;;
51286;SDS011;37364;46.974;18.916;2022-12-11T15:18:16;77.07;;;38.40;;